Time;durP1;ratioP1;P1;durP2;ratioP2;P2;SDS_P1;SDS_P2;PMS_P1;PMS_P2;Temp;Humidity;BMP_temperature;BMP_pressure;BME280_temperature;BME280_humidity;BME280_pressure;Samples;Min_cycle;Max_cycle;Signal;HPM_P1;HPM_P2
2022/09/12 00:01:47;;;;;;;2.08;1.23;;;;;;;;;;10224814;28;20054;-67
2022/09/12 00:06:45;;;;;;;4.53;1.30;;;;;;;;;;10224493;28;20066;-67
2022/09/12 00:11:45;;;;;;;4.25;1.83;;;;;;;;;;10207352;28;20068;-68
2022/09/12 00:16:44;;;;;;;1.42;1.10;;;;;;;;;;10199939;28;20471;-68
2022/09/12 00:21:43;;;;;;;6.18;1.50;;;;;;;;;;10197843;28;20048;-66
2022/09/12 00:26:41;;;;;;;2.20;1.20;;;;;;;;;;10197656;28;20049;-68
2022/09/12 00:31:39;;;;;;;1.35;1.20;;;;;;;;;;10199037;28;20356;-67
2022/09/12 00:36:39;;;;;;;1.48;1.00;;;;;;;;;;10197549;28;20496;-67
2022/09/12 00:41:39;;;;;;;1.60;1.30;;;;;;;;;;10198051;28;20080;-67
2022/09/12 00:46:39;;;;;;;2.85;2.03;;;;;;;;;;10197662;28;20049;-67
2022/09/12 00:51:39;;;;;;;1.83;1.00;;;;;;;;;;10198165;28;20530;-67
2022/09/12 00:56:38;;;;;;;2.30;1.10;;;;;;;;;;10197466;28;20081;-68
2022/09/12 01:01:37;;;;;;;5.50;1.52;;;;;;;;;;10197672;28;20042;-68
2022/09/12 01:06:37;;;;;;;1.50;1.13;;;;;;;;;;10196883;28;20267;-67
2022/09/12 01:11:37;;;;;;;3.25;1.40;;;;;;;;;;10197343;28;20049;-67
2022/09/12 01:16:36;;;;;;;5.68;1.58;;;;;;;;;;10195785;28;20089;-68
2022/09/12 01:21:41;;;;;;;9.32;2.00;;;;;;;;;;10195845;28;20085;-68
2022/09/12 01:26:39;;;;;;;;;;;;;;;;;;10197164;28;20529;-68
2022/09/12 01:31:41;;;;;;;1.15;0.90;;;;;;;;;;10196183;28;19955;-68
2022/09/12 01:36:44;;;;;;;3.58;1.25;;;;;;;;;;10195780;28;20073;-65
2022/09/12 01:41:48;;;;;;;1.60;1.00;;;;;;;;;;10195443;28;20490;-66
2022/09/12 01:46:50;;;;;;;3.83;1.30;;;;;;;;;;10195892;28;20050;-65
2022/09/12 01:51:53;;;;;;;1.63;1.20;;;;;;;;;;10196134;28;20509;-65
2022/09/12 01:56:53;;;;;;;2.85;1.52;;;;;;;;;;10195210;28;20074;-65
2022/09/12 02:01:55;;;;;;;1.45;1.17;;;;;;;;;;10195451;28;20042;-66
2022/09/12 02:06:57;;;;;;;2.10;1.15;;;;;;;;;;10195465;28;20058;-66
2022/09/12 02:11:57;;;;;;;3.20;1.30;;;;;;;;;;10194673;28;20058;-65
2022/09/12 02:16:59;;;;;;;1.58;1.02;;;;;;;;;;10194182;28;20474;-65
2022/09/12 02:21:58;;;;;;;3.75;1.00;;;;;;;;;;10194681;28;20431;-65
2022/09/12 02:26:59;;;;;;;4.47;1.25;;;;;;;;;;10194758;28;20069;-65
2022/09/12 02:31:59;;;;;;;3.55;1.75;;;;;;;;;;10194142;28;20057;-66
2022/09/12 02:37:01;;;;;;;3.70;1.30;;;;;;;;;;10194023;28;20069;-64
2022/09/12 02:42:00;;;;;;;2.65;1.33;;;;;;;;;;10194701;28;20042;-65
2022/09/12 02:47:02;;;;;;;3.85;1.35;;;;;;;;;;10193329;28;20073;-65
2022/09/12 02:52:01;;;;;;;1.30;1.15;;;;;;;;;;10194177;28;20050;-65
2022/09/12 02:56:59;;;;;;;3.92;1.30;;;;;;;;;;10194495;28;20081;-65
2022/09/12 03:02:07;;;;;;;1.63;1.40;;;;;;;;;;10192347;28;20530;-65
2022/09/12 03:07:10;;;;;;;5.07;1.40;;;;;;;;;;10192344;28;20100;-65
2022/09/12 03:12:14;;;;;;;4.65;1.70;;;;;;;;;;10192591;28;20081;-65
2022/09/12 03:17:17;;;;;;;6.00;2.75;;;;;;;;;;10192502;28;20077;-66
2022/09/12 03:22:19;;;;;;;4.60;1.53;;;;;;;;;;10192432;28;20073;-65
2022/09/12 03:27:20;;;;;;;5.43;4.10;;;;;;;;;;10192586;28;20506;-65
2022/09/12 03:32:19;;;;;;;3.05;1.98;;;;;;;;;;10192486;28;20046;-65
2022/09/12 03:37:17;;;;;;;3.20;2.00;;;;;;;;;;10192580;28;20073;-66
2022/09/12 03:42:16;;;;;;;2.25;1.30;;;;;;;;;;10191802;28;20527;-65
2022/09/12 03:47:14;;;;;;;2.63;1.67;;;;;;;;;;10192911;28;20419;-65
2022/09/12 03:52:13;;;;;;;2.40;1.33;;;;;;;;;;10191782;28;20538;-65
2022/09/12 03:57:12;;;;;;;2.90;1.33;;;;;;;;;;10192765;28;20081;-65
2022/09/12 04:02:11;;;;;;;2.72;1.70;;;;;;;;;;10198589;28;20069;-65
2022/09/12 04:07:10;;;;;;;3.28;1.98;;;;;;;;;;10199292;28;20058;-65
2022/09/12 04:12:10;;;;;;;7.03;4.75;;;;;;;;;;10198917;28;20046;-65
2022/09/12 04:17:08;;;;;;;1.60;1.50;;;;;;;;;;10199162;28;20073;-65
2022/09/12 04:22:06;;;;;;;5.78;4.80;;;;;;;;;;10199112;28;20096;-64
2022/09/12 04:27:04;;;;;;;4.18;2.15;;;;;;;;;;10198922;28;20469;-66
2022/09/12 04:32:06;;;;;;;3.90;1.85;;;;;;;;;;10198740;28;20053;-65
2022/09/12 04:37:04;;;;;;;3.70;2.47;;;;;;;;;;10198888;28;20085;-65
2022/09/12 04:42:03;;;;;;;4.60;2.35;;;;;;;;;;10198645;28;20053;-66
2022/09/12 04:47:02;;;;;;;7.93;3.70;;;;;;;;;;10198693;28;20072;-65
2022/09/12 04:52:02;;;;;;;4.35;2.88;;;;;;;;;;10196784;28;20484;-65
2022/09/12 04:57:00;;;;;;;3.38;2.20;;;;;;;;;;10197027;28;20069;-65
2022/09/12 05:01:58;;;;;;;7.05;2.33;;;;;;;;;;10196905;28;20042;-65
2022/09/12 05:06:57;;;;;;;1.83;1.60;;;;;;;;;;10197577;28;20060;-66
2022/09/12 05:11:58;;;;;;;3.20;1.98;;;;;;;;;;10195138;28;20088;-64
2022/09/12 05:17:02;;;;;;;2.83;1.85;;;;;;;;;;10196886;28;20070;-65
2022/09/12 05:22:00;;;;;;;4.63;1.67;;;;;;;;;;10195402;28;20080;-65
2022/09/12 05:27:01;;;;;;;3.97;2.00;;;;;;;;;;10196019;28;20050;-66
2022/09/12 05:31:59;;;;;;;3.75;1.80;;;;;;;;;;10196907;28;20054;-66
2022/09/12 05:36:57;;;;;;;5.22;1.95;;;;;;;;;;10196722;28;20073;-65
2022/09/12 05:41:55;;;;;;;3.97;1.92;;;;;;;;;;10196425;28;20426;-67
2022/09/12 05:46:55;;;;;;;2.28;1.98;;;;;;;;;;10196367;28;20081;-66
2022/09/12 05:51:53;;;;;;;4.10;2.20;;;;;;;;;;10196411;28;20089;-65
2022/09/12 05:56:52;;;;;;;5.10;3.13;;;;;;;;;;10195614;28;20085;-65
2022/09/12 06:01:51;;;;;;;3.67;1.85;;;;;;;;;;10178333;28;20042;-65
2022/09/12 06:06:50;;;;;;;3.38;2.20;;;;;;;;;;10195434;28;20057;-64
2022/09/12 06:11:49;;;;;;;4.07;2.53;;;;;;;;;;10195267;28;20111;-64
2022/09/12 06:16:48;;;;;;;2.60;2.33;;;;;;;;;;10189983;28;20511;-65
2022/09/12 06:21:48;;;;;;;3.63;1.83;;;;;;;;;;10190957;28;20084;-66
2022/09/12 06:26:48;;;;;;;13.05;2.05;;;;;;;;;;10194367;28;20042;-68
2022/09/12 06:31:47;;;;;;;3.33;1.95;;;;;;;;;;10194563;28;20061;-67
2022/09/12 06:36:46;;;;;;;5.28;1.75;;;;;;;;;;10173717;28;20066;-65
2022/09/12 06:41:44;;;;;;;4.22;1.40;;;;;;;;;;10191138;28;20082;-65
2022/09/12 06:46:45;;;;;;;1.65;1.50;;;;;;;;;;10193216;28;20048;-66
2022/09/12 06:51:43;;;;;;;2.45;1.83;;;;;;;;;;10193593;28;20145;-66
2022/09/12 06:56:42;;;;;;;3.33;1.70;;;;;;;;;;10192446;28;20077;-65
2022/09/12 07:01:40;;;;;;;9.43;2.00;;;;;;;;;;10191392;28;20527;-66
2022/09/12 07:06:41;;;;;;;1.83;1.60;;;;;;;;;;10193483;28;20057;-66
2022/09/12 07:11:40;;;;;;;6.43;3.08;;;;;;;;;;10189912;28;20081;-66
2022/09/12 07:16:38;;;;;;;2.65;1.55;;;;;;;;;;10189300;28;20548;-66
2022/09/12 07:21:38;;;;;;;3.90;2.35;;;;;;;;;;10189004;28;20534;-66
2022/09/12 07:26:40;;;;;;;2.00;1.45;;;;;;;;;;10191846;28;20203;-65
2022/09/12 07:31:39;;;;;;;6.45;1.50;;;;;;;;;;10193566;28;20081;-66
2022/09/12 07:36:38;;;;;;;2.50;1.50;;;;;;;;;;10199776;28;20526;-66
2022/09/12 07:41:36;;;;;;;2.13;1.13;;;;;;;;;;10200684;28;20434;-65
2022/09/12 07:46:35;;;;;;;1.30;1.08;;;;;;;;;;10200963;28;20061;-65
2022/09/12 07:51:33;;;;;;;5.28;1.55;;;;;;;;;;10200530;28;20050;-65
2022/09/12 07:56:32;;;;;;;2.67;1.25;;;;;;;;;;10199846;28;20084;-66
2022/09/12 08:01:38;;;;;;;5.32;1.50;;;;;;;;;;10198979;28;20066;-65
2022/09/12 08:06:36;;;;;;;3.80;1.30;;;;;;;;;;10199565;28;20168;-66
2022/09/12 08:11:35;;;;;;;1.17;1.08;;;;;;;;;;10198902;28;20037;-66
2022/09/12 08:16:34;;;;;;;4.97;1.63;;;;;;;;;;10199108;28;20076;-66
2022/09/12 08:21:34;;;;;;;3.65;1.58;;;;;;;;;;10198622;28;20084;-66
2022/09/12 08:26:32;;;;;;;3.15;1.85;;;;;;;;;;10198318;28;20048;-65
2022/09/12 08:31:35;;;;;;;5.50;1.88;;;;;;;;;;10198583;28;20069;-66
2022/09/12 08:36:35;;;;;;;4.93;1.48;;;;;;;;;;10198722;28;20088;-66
2022/09/12 08:41:35;;;;;;;2.17;1.23;;;;;;;;;;10197707;28;20077;-66
2022/09/12 08:46:36;;;;;;;1.92;1.70;;;;;;;;;;10196590;28;20046;-67
2022/09/12 08:51:36;;;;;;;4.60;2.95;;;;;;;;;;10197324;28;20053;-66
2022/09/12 08:56:36;;;;;;;11.90;2.80;;;;;;;;;;10197519;28;20077;-67
2022/09/12 09:01:36;;;;;;;4.32;1.77;;;;;;;;;;10196699;28;20575;-66
2022/09/12 09:06:53;;;;;;;4.95;1.80;;;;;;;;;;10196549;28;20066;-66
2022/09/12 09:11:56;;;;;;;2.30;1.98;;;;;;;;;;10195863;28;20084;-66
2022/09/12 09:16:55;;;;;;;6.25;1.90;;;;;;;;;;10195962;28;20085;-66
2022/09/12 09:21:57;;;;;;;7.35;2.78;;;;;;;;;;10195393;28;20484;-67
2022/09/12 09:27:13;;;;;;;4.63;1.70;;;;;;;;;;10196124;28;20073;-66
2022/09/12 09:32:37;;;;;;;4.57;2.08;;;;;;;;;;10195018;28;20491;-67
2022/09/12 09:37:39;;;;;;;4.13;2.20;;;;;;;;;;10196689;28;20077;-65
2022/09/12 09:42:42;;;;;;;2.60;1.85;;;;;;;;;;10195161;28;20073;-67
2022/09/12 09:47:43;;;;;;;4.95;1.65;;;;;;;;;;10195453;28;20104;-67
2022/09/12 09:52:47;;;;;;;4.47;1.55;;;;;;;;;;10193785;28;20060;-67
2022/09/12 09:57:46;;;;;;;3.90;1.33;;;;;;;;;;10195485;28;20073;-65
2022/09/12 10:02:57;;;;;;;8.73;1.70;;;;;;;;;;10194494;28;20073;-65
2022/09/12 10:07:57;;;;;;;1.40;1.30;;;;;;;;;;10194979;28;20085;-65
2022/09/12 10:13:06;;;;;;;2.90;1.17;;;;;;;;;;10195019;28;20042;-67
2022/09/12 10:18:04;;;;;;;2.05;1.00;;;;;;;;;;10195088;28;20041;-65
2022/09/12 10:23:18;;;;;;;1.45;1.25;;;;;;;;;;10193589;28;20134;-65
2022/09/12 10:28:23;;;;;;;3.30;1.17;;;;;;;;;;10193867;28;20077;-66
2022/09/12 10:33:24;;;;;;;1.40;1.30;;;;;;;;;;10194020;28;20057;-65
2022/09/12 10:38:25;;;;;;;1.88;1.13;;;;;;;;;;10194230;28;20041;-66
2022/09/12 10:43:26;;;;;;;3.35;1.80;;;;;;;;;;10193898;28;20061;-66
2022/09/12 10:48:28;;;;;;;1.60;1.02;;;;;;;;;;10194393;28;20085;-66
2022/09/12 10:53:28;;;;;;;3.72;0.90;;;;;;;;;;10193672;28;20080;-66
2022/09/12 10:58:39;;;;;;;2.08;1.15;;;;;;;;;;10193939;28;20046;-65
2022/09/12 11:03:45;;;;;;;6.55;1.30;;;;;;;;;;10193751;28;20042;-66
2022/09/12 11:09:01;;;;;;;2.15;1.30;;;;;;;;;;10195741;28;20092;-65
2022/09/12 11:14:05;;;;;;;3.10;1.55;;;;;;;;;;10201933;28;20466;-65
2022/09/12 11:19:12;;;;;;;1.70;1.40;;;;;;;;;;10202650;28;20042;-65
2022/09/12 11:24:28;;;;;;;2.40;1.38;;;;;;;;;;10201488;28;20305;-67
2022/09/12 11:29:33;;;;;;;6.22;1.48;;;;;;;;;;10200576;28;20114;-66
2022/09/12 11:34:37;;;;;;;4.65;1.33;;;;;;;;;;10200733;28;20041;-66
2022/09/12 11:39:38;;;;;;;1.65;1.33;;;;;;;;;;10200077;28;20154;-66
2022/09/12 11:44:41;;;;;;;2.75;1.27;;;;;;;;;;10200409;28;20443;-66
2022/09/12 11:49:40;;;;;;;;;;;;;;;;;;10200686;28;20499;-67
2022/09/12 11:54:41;;;;;;;1.63;1.20;;;;;;;;;;10200088;28;19928;-65
2022/09/12 11:59:43;;;;;;;1.48;1.30;;;;;;;;;;10199612;28;20427;-66
2022/09/12 12:04:48;;;;;;;5.45;1.77;;;;;;;;;;10200605;28;20080;-66
2022/09/12 12:09:48;;;;;;;2.05;1.60;;;;;;;;;;10199651;28;20085;-66
2022/09/12 12:14:50;;;;;;;5.22;2.92;;;;;;;;;;10198525;28;20038;-66
2022/09/12 12:19:56;;;;;;;2.85;1.00;;;;;;;;;;10199711;28;20042;-65
2022/09/12 12:25:05;;;;;;;1.05;0.90;;;;;;;;;;10200147;28;20042;-66
2022/09/12 12:30:27;;;;;;;2.63;1.30;;;;;;;;;;10198903;28;20061;-65
2022/09/12 12:35:38;;;;;;;2.88;1.48;;;;;;;;;;10197831;28;20056;-66
2022/09/12 12:40:36;;;;;;;2.97;1.83;;;;;;;;;;10198731;28;20084;-66
2022/09/12 12:45:53;;;;;;;1.17;1.08;;;;;;;;;;10198356;28;20104;-65
2022/09/12 12:50:52;;;;;;;4.00;1.50;;;;;;;;;;10197532;28;20081;-66
2022/09/12 12:55:52;;;;;;;1.85;1.67;;;;;;;;;;10199071;28;20042;-66
2022/09/12 13:01:01;;;;;;;3.25;1.40;;;;;;;;;;10198549;28;20042;-66
2022/09/12 13:06:02;;;;;;;3.03;2.05;;;;;;;;;;10196561;28;20054;-66
2022/09/12 13:11:01;;;;;;;1.02;0.93;;;;;;;;;;10196139;28;20080;-66
2022/09/12 13:16:00;;;;;;;2.50;1.70;;;;;;;;;;10197154;28;20041;-66
2022/09/12 13:21:06;;;;;;;2.25;1.23;;;;;;;;;;10197600;28;20503;-66
2022/09/12 13:26:10;;;;;;;3.85;1.00;;;;;;;;;;10196642;28;20053;-66
2022/09/12 13:31:11;;;;;;;1.77;1.45;;;;;;;;;;10196361;28;20084;-66
2022/09/12 13:36:30;;;;;;;1.67;1.50;;;;;;;;;;10196492;28;20079;-66
2022/09/12 13:41:38;;;;;;;1.75;1.17;;;;;;;;;;10194447;28;20078;-67
2022/09/12 13:46:37;;;;;;;12.10;2.05;;;;;;;;;;10194559;28;20069;-65
2022/09/12 13:51:35;;;;;;;3.60;2.15;;;;;;;;;;10193765;28;20085;-65
2022/09/12 13:56:46;;;;;;;6.35;2.00;;;;;;;;;;10192967;28;20435;-66
2022/09/12 14:01:45;;;;;;;3.20;1.65;;;;;;;;;;10194190;28;20066;-66
2022/09/12 14:06:46;;;;;;;5.13;2.00;;;;;;;;;;10194931;28;20089;-66
2022/09/12 14:11:46;;;;;;;5.25;1.40;;;;;;;;;;10194647;28;20081;-66
2022/09/12 14:16:44;;;;;;;3.22;1.65;;;;;;;;;;10177318;28;20054;-66
2022/09/12 14:21:43;;;;;;;3.78;1.65;;;;;;;;;;10193913;28;20073;-66
2022/09/12 14:26:42;;;;;;;5.07;3.78;;;;;;;;;;10193618;28;20042;-65
2022/09/12 14:31:42;;;;;;;7.07;2.17;;;;;;;;;;10193296;28;20073;-66
2022/09/12 14:36:43;;;;;;;2.75;1.30;;;;;;;;;;10193216;28;20049;-66
2022/09/12 14:41:42;;;;;;;2.90;2.08;;;;;;;;;;10192708;28;20048;-66
2022/09/12 14:46:42;;;;;;;6.53;2.13;;;;;;;;;;10192091;28;20108;-66
2022/09/12 14:51:46;;;;;;;4.68;2.05;;;;;;;;;;10192532;28;20076;-66
2022/09/12 14:56:54;;;;;;;1.50;1.13;;;;;;;;;;10193218;28;20057;-65
2022/09/12 15:02:07;;;;;;;2.35;1.98;;;;;;;;;;10191830;28;20084;-65
2022/09/12 15:07:15;;;;;;;3.95;1.80;;;;;;;;;;10191876;28;20368;-65
2022/09/12 15:12:13;;;;;;;3.60;1.65;;;;;;;;;;10192156;28;20076;-66
2022/09/12 15:17:11;;;;;;;3.38;2.30;;;;;;;;;;10191763;28;20094;-65
2022/09/12 15:22:10;;;;;;;10.40;2.58;;;;;;;;;;10190926;28;20085;-65
2022/09/12 15:27:11;;;;;;;6.03;1.90;;;;;;;;;;10192342;28;20076;-64
2022/09/12 15:32:14;;;;;;;4.93;2.97;;;;;;;;;;10191987;28;20084;-64
2022/09/12 15:37:13;;;;;;;7.35;4.10;;;;;;;;;;10191968;28;20050;-66
2022/09/12 15:42:13;;;;;;;10.43;5.28;;;;;;;;;;10192090;28;20069;-66
2022/09/12 15:47:12;;;;;;;4.63;3.28;;;;;;;;;;10192320;28;20070;-65
2022/09/12 15:52:14;;;;;;;8.95;4.43;;;;;;;;;;10191057;28;20557;-64
2022/09/12 15:57:13;;;;;;;6.00;3.00;;;;;;;;;;10194810;28;20100;-65
2022/09/12 16:02:11;;;;;;;6.90;3.03;;;;;;;;;;10198438;28;20048;-66
2022/09/12 16:07:10;;;;;;;14.35;10.85;;;;;;;;;;10198225;28;20064;-65
2022/09/12 16:12:09;;;;;;;4.97;4.10;;;;;;;;;;10198185;28;20467;-65
2022/09/12 16:17:08;;;;;;;9.38;3.97;;;;;;;;;;10197201;28;20480;-66
2022/09/12 16:22:07;;;;;;;26.33;7.32;;;;;;;;;;10198037;28;20476;-65
2022/09/12 16:27:05;;;;;;;7.60;3.70;;;;;;;;;;10198327;28;20067;-66
2022/09/12 16:32:03;;;;;;;10.45;5.35;;;;;;;;;;10197394;28;20065;-66
2022/09/12 16:37:03;;;;;;;10.73;4.93;;;;;;;;;;10197783;28;20080;-66
2022/09/12 16:42:01;;;;;;;7.30;5.53;;;;;;;;;;10197222;28;20038;-65
2022/09/12 16:46:59;;;;;;;12.00;8.55;;;;;;;;;;10197254;28;20089;-65
2022/09/12 16:51:57;;;;;;;10.13;4.95;;;;;;;;;;10196945;28;20503;-66
2022/09/12 16:56:57;;;;;;;11.57;6.22;;;;;;;;;;10197617;28;20038;-66
2022/09/12 17:01:55;;;;;;;5.32;3.65;;;;;;;;;;10196628;28;20088;-65
2022/09/12 17:06:53;;;;;;;6.45;3.28;;;;;;;;;;10195993;28;20100;-65
2022/09/12 17:11:52;;;;;;;10.43;3.08;;;;;;;;;;10196239;28;20515;-66
2022/09/12 17:16:51;;;;;;;4.95;1.85;;;;;;;;;;10195818;28;20054;-63
2022/09/12 17:21:49;;;;;;;8.45;2.58;;;;;;;;;;10193394;28;20069;-66
2022/09/12 17:26:48;;;;;;;5.80;2.97;;;;;;;;;;10194823;28;20080;-68
2022/09/12 17:31:46;;;;;;;9.27;1.95;;;;;;;;;;10194487;28;20066;-68
2022/09/12 17:36:48;;;;;;;9.73;2.80;;;;;;;;;;10194806;28;20069;-68
2022/09/12 17:41:50;;;;;;;7.68;4.15;;;;;;;;;;10183603;28;20088;-69
2022/09/12 17:46:51;;;;;;;5.90;2.70;;;;;;;;;;10191713;28;20061;-68
2022/09/12 17:51:51;;;;;;;4.22;2.40;;;;;;;;;;10173252;28;20790;-67
2022/09/12 17:56:50;;;;;;;8.77;2.60;;;;;;;;;;10192989;28;20070;-68
2022/09/12 18:07:06;;;;;;;6.00;2.08;;;;;;;;;;10191515;28;20077;-68
2022/09/12 18:12:04;;;;;;;4.38;2.10;;;;;;;;;;10190358;28;20061;-69
2022/09/12 18:17:03;;;;;;;5.50;2.17;;;;;;;;;;10184413;28;20057;-68
2022/09/12 18:22:02;;;;;;;2.20;1.40;;;;;;;;;;10191340;28;20073;-68
2022/09/12 18:27:02;;;;;;;3.53;1.85;;;;;;;;;;10192177;28;20100;-67
2022/09/12 18:32:01;;;;;;;4.57;1.88;;;;;;;;;;10190438;28;20069;-69
2022/09/12 18:37:00;;;;;;;4.15;1.73;;;;;;;;;;10192578;28;20069;-69
2022/09/12 18:41:58;;;;;;;3.03;2.25;;;;;;;;;;10190770;28;20065;-67
2022/09/12 18:46:58;;;;;;;2.10;1.45;;;;;;;;;;10191202;28;20050;-68
2022/09/12 18:51:56;;;;;;;2.90;1.70;;;;;;;;;;10191346;28;20084;-68
2022/09/12 18:56:55;;;;;;;2.15;1.90;;;;;;;;;;10170102;28;20136;-66
2022/09/12 19:01:53;;;;;;;2.80;1.95;;;;;;;;;;10185650;28;20070;-66
2022/09/12 19:06:53;;;;;;;3.70;1.70;;;;;;;;;;10190015;28;20077;-66
2022/09/12 19:11:53;;;;;;;2.28;1.52;;;;;;;;;;10190064;28;20081;-67
2022/09/12 19:16:52;;;;;;;2.10;1.50;;;;;;;;;;10194406;28;20077;-67
2022/09/12 19:21:50;;;;;;;1.80;1.70;;;;;;;;;;10185353;28;20066;-67
2022/09/12 19:26:50;;;;;;;4.38;2.00;;;;;;;;;;10191914;28;20076;-67
2022/09/12 19:31:48;;;;;;;2.42;2.00;;;;;;;;;;10197579;28;20073;-68
2022/09/12 19:36:47;;;;;;;1.98;1.80;;;;;;;;;;10198838;28;20069;-66
2022/09/12 19:41:45;;;;;;;5.35;1.88;;;;;;;;;;10207821;28;20079;-67
2022/09/12 19:46:45;;;;;;;3.38;1.85;;;;;;;;;;10211889;28;20073;-67
2022/09/12 19:51:43;;;;;;;2.67;2.40;;;;;;;;;;10214245;28;20080;-67
2022/09/12 19:56:42;;;;;;;4.25;2.45;;;;;;;;;;10201946;28;20065;-68
2022/09/12 20:01:40;;;;;;;2.55;2.22;;;;;;;;;;10197102;28;20065;-68
2022/09/12 20:06:40;;;;;;;3.03;2.45;;;;;;;;;;10198539;28;20488;-67
2022/09/12 20:11:38;;;;;;;3.65;2.40;;;;;;;;;;10195884;28;20066;-68
2022/09/12 20:16:37;;;;;;;3.60;2.30;;;;;;;;;;10195164;28;20081;-67
2022/09/12 20:21:36;;;;;;;3.35;2.25;;;;;;;;;;10198476;28;20134;-66
2022/09/12 20:26:36;;;;;;;4.63;1.90;;;;;;;;;;10197663;28;20084;-67
2022/09/12 20:31:35;;;;;;;7.28;2.58;;;;;;;;;;10198221;28;20073;-66
2022/09/12 20:36:33;;;;;;;6.22;1.77;;;;;;;;;;10198668;28;20427;-66
2022/09/12 20:41:33;;;;;;;4.03;1.70;;;;;;;;;;10198719;28;20061;-67
2022/09/12 20:46:33;;;;;;;2.70;2.38;;;;;;;;;;10198904;28;20062;-66
2022/09/12 20:51:31;;;;;;;2.40;1.95;;;;;;;;;;10197913;28;20076;-66
2022/09/12 20:56:30;;;;;;;2.85;1.90;;;;;;;;;;10197860;28;20057;-65
2022/09/12 21:01:30;;;;;;;2.70;2.50;;;;;;;;;;10197249;28;20045;-65
2022/09/12 21:06:30;;;;;;;3.17;1.80;;;;;;;;;;10179699;28;20060;-66
2022/09/12 21:11:28;;;;;;;3.10;1.60;;;;;;;;;;10196952;28;20097;-66
2022/09/12 21:16:27;;;;;;;3.40;1.80;;;;;;;;;;10197608;28;20042;-66
2022/09/12 21:21:26;;;;;;;4.28;1.70;;;;;;;;;;10197482;28;20076;-65
2022/09/12 21:26:26;;;;;;;1.92;1.45;;;;;;;;;;10197008;28;20104;-67
2022/09/12 21:37:21;;;;;;;3.00;1.60;;;;;;;;;;10201947;28;20081;-67
2022/09/12 21:42:21;;;;;;;1.55;1.45;;;;;;;;;;10177700;28;20049;-68
2022/09/12 21:47:19;;;;;;;3.90;2.05;;;;;;;;;;10191442;28;20510;-68
2022/09/12 21:52:17;;;;;;;2.08;1.40;;;;;;;;;;10191896;28;20081;-68
2022/09/12 21:57:15;;;;;;;2.30;1.70;;;;;;;;;;10192601;28;20085;-67
2022/09/12 22:02:14;;;;;;;7.28;2.08;;;;;;;;;;10194866;28;20511;-67
2022/09/12 22:07:13;;;;;;;5.35;1.75;;;;;;;;;;10194166;28;20415;-67
2022/09/12 22:12:11;;;;;;;4.00;1.95;;;;;;;;;;10196362;28;20112;-67
2022/09/12 22:17:10;;;;;;;4.10;2.10;;;;;;;;;;10195672;28;20099;-67
2022/09/12 22:27:24;;;;;;;2.72;1.80;;;;;;;;;;10195105;28;20046;-68
2022/09/12 22:32:22;;;;;;;4.75;2.53;;;;;;;;;;10195016;28;20081;-68
2022/09/12 22:37:22;;;;;;;2.35;2.15;;;;;;;;;;10194493;28;20078;-68
2022/09/12 22:42:20;;;;;;;3.70;2.22;;;;;;;;;;10194752;28;20073;-68
2022/09/12 22:47:18;;;;;;;2.42;2.22;;;;;;;;;;10194460;28;20507;-67
2022/09/12 22:52:16;;;;;;;2.83;2.25;;;;;;;;;;10194135;28;20073;-67
2022/09/12 22:57:16;;;;;;;3.30;2.15;;;;;;;;;;10194095;28;20082;-68
2022/09/12 23:02:14;;;;;;;2.55;2.17;;;;;;;;;;10194395;28;20065;-67
2022/09/12 23:07:12;;;;;;;7.60;2.80;;;;;;;;;;10192322;28;20088;-67
2022/09/12 23:12:10;;;;;;;4.00;2.40;;;;;;;;;;10193789;28;20475;-68
2022/09/12 23:17:09;;;;;;;9.57;2.85;;;;;;;;;;10193861;28;20053;-67
2022/09/12 23:22:07;;;;;;;5.32;2.30;;;;;;;;;;10194008;28;20100;-67
2022/09/12 23:27:05;;;;;;;3.08;2.45;;;;;;;;;;10193754;28;20081;-67
2022/09/12 23:32:04;;;;;;;4.00;2.42;;;;;;;;;;10193747;28;20470;-67
2022/09/12 23:37:03;;;;;;;4.00;2.40;;;;;;;;;;10193430;28;20092;-68
2022/09/12 23:42:01;;;;;;;3.95;2.67;;;;;;;;;;10192940;28;20050;-67
2022/09/12 23:46:59;;;;;;;4.13;2.78;;;;;;;;;;10193277;28;20046;-68
2022/09/12 23:51:57;;;;;;;2.53;2.33;;;;;;;;;;10192810;28;20081;-67
2022/09/12 23:56:56;;;;;;;2.65;2.45;;;;;;;;;;10192515;28;20076;-68
